sensor_id;sensor_type;location;lat;lon;timestamp;P1;durP1;ratioP1;P2;durP2;ratioP2
26391;SDS011;14572;43.120;1.178;2022-07-06T00:01:03;5.20;;;3.40;;
26391;SDS011;14572;43.120;1.178;2022-07-06T00:03:30;7.88;;;3.75;;
26391;SDS011;14572;43.120;1.178;2022-07-06T00:05:57;7.63;;;3.50;;
26391;SDS011;14572;43.120;1.178;2022-07-06T00:08:26;5.63;;;3.58;;
26391;SDS011;14572;43.120;1.178;2022-07-06T00:10:53;4.35;;;3.78;;
26391;SDS011;14572;43.120;1.178;2022-07-06T00:13:20;6.90;;;3.72;;
26391;SDS011;14572;43.120;1.178;2022-07-06T00:15:47;5.78;;;3.42;;
26391;SDS011;14572;43.120;1.178;2022-07-06T00:18:14;7.63;;;4.38;;
26391;SDS011;14572;43.120;1.178;2022-07-06T00:20:42;6.30;;;3.60;;
26391;SDS011;14572;43.120;1.178;2022-07-06T00:23:09;4.80;;;3.50;;
26391;SDS011;14572;43.120;1.178;2022-07-06T00:25:38;6.47;;;3.88;;
26391;SDS011;14572;43.120;1.178;2022-07-06T00:28:05;8.05;;;3.75;;
26391;SDS011;14572;43.120;1.178;2022-07-06T00:30:32;5.60;;;3.85;;
26391;SDS011;14572;43.120;1.178;2022-07-06T00:32:59;7.60;;;3.97;;
26391;SDS011;14572;43.120;1.178;2022-07-06T00:35:26;7.72;;;4.03;;
26391;SDS011;14572;43.120;1.178;2022-07-06T00:37:53;7.38;;;4.00;;
26391;SDS011;14572;43.120;1.178;2022-07-06T00:40:21;8.25;;;3.92;;
26391;SDS011;14572;43.120;1.178;2022-07-06T00:42:49;6.75;;;4.53;;
26391;SDS011;14572;43.120;1.178;2022-07-06T00:45:17;8.18;;;3.97;;
26391;SDS011;14572;43.120;1.178;2022-07-06T00:47:45;9.82;;;4.00;;
26391;SDS011;14572;43.120;1.178;2022-07-06T00:50:13;6.68;;;4.28;;
26391;SDS011;14572;43.120;1.178;2022-07-06T00:52:47;7.80;;;3.95;;
26391;SDS011;14572;43.120;1.178;2022-07-06T00:55:15;7.53;;;4.40;;
26391;SDS011;14572;43.120;1.178;2022-07-06T00:57:43;7.15;;;3.97;;
26391;SDS011;14572;43.120;1.178;2022-07-06T01:00:13;7.93;;;4.50;;
26391;SDS011;14572;43.120;1.178;2022-07-06T01:02:41;6.72;;;3.70;;
26391;SDS011;14572;43.120;1.178;2022-07-06T01:05:09;7.25;;;4.13;;
26391;SDS011;14572;43.120;1.178;2022-07-06T01:07:37;4.63;;;3.75;;
26391;SDS011;14572;43.120;1.178;2022-07-06T01:10:06;7.90;;;3.55;;
26391;SDS011;14572;43.120;1.178;2022-07-06T01:12:34;8.50;;;4.30;;
26391;SDS011;14572;43.120;1.178;2022-07-06T01:15:02;5.47;;;3.60;;
26391;SDS011;14572;43.120;1.178;2022-07-06T01:17:31;10.38;;;4.15;;
26391;SDS011;14572;43.120;1.178;2022-07-06T01:20:06;5.97;;;4.60;;
26391;SDS011;14572;43.120;1.178;2022-07-06T01:22:34;4.75;;;3.80;;
26391;SDS011;14572;43.120;1.178;2022-07-06T01:25:02;5.53;;;4.45;;
26391;SDS011;14572;43.120;1.178;2022-07-06T01:27:30;8.98;;;4.13;;
26391;SDS011;14572;43.120;1.178;2022-07-06T01:29:57;6.97;;;4.38;;
26391;SDS011;14572;43.120;1.178;2022-07-06T01:32:24;8.68;;;4.45;;
26391;SDS011;14572;43.120;1.178;2022-07-06T01:34:51;7.18;;;4.40;;
26391;SDS011;14572;43.120;1.178;2022-07-06T01:37:20;5.78;;;4.03;;
26391;SDS011;14572;43.120;1.178;2022-07-06T01:39:47;6.47;;;4.35;;
26391;SDS011;14572;43.120;1.178;2022-07-06T01:42:13;8.70;;;4.35;;
26391;SDS011;14572;43.120;1.178;2022-07-06T01:44:42;5.82;;;4.40;;
26391;SDS011;14572;43.120;1.178;2022-07-06T01:47:09;7.10;;;5.00;;
26391;SDS011;14572;43.120;1.178;2022-07-06T01:49:36;5.40;;;4.90;;
26391;SDS011;14572;43.120;1.178;2022-07-06T01:52:03;7.70;;;4.50;;
26391;SDS011;14572;43.120;1.178;2022-07-06T01:54:32;7.50;;;4.32;;
26391;SDS011;14572;43.120;1.178;2022-07-06T01:57:00;7.13;;;4.88;;
26391;SDS011;14572;43.120;1.178;2022-07-06T01:59:27;6.40;;;4.03;;
26391;SDS011;14572;43.120;1.178;2022-07-06T02:01:54;7.68;;;4.00;;
26391;SDS011;14572;43.120;1.178;2022-07-06T02:04:21;5.45;;;4.40;;
26391;SDS011;14572;43.120;1.178;2022-07-06T02:06:48;5.07;;;4.45;;
26391;SDS011;14572;43.120;1.178;2022-07-06T02:09:15;4.85;;;3.78;;
26391;SDS011;14572;43.120;1.178;2022-07-06T02:11:44;6.50;;;3.78;;
26391;SDS011;14572;43.120;1.178;2022-07-06T02:14:11;7.55;;;4.10;;
26391;SDS011;14572;43.120;1.178;2022-07-06T02:16:39;5.72;;;4.28;;
26391;SDS011;14572;43.120;1.178;2022-07-06T02:19:06;7.22;;;4.25;;
26391;SDS011;14572;43.120;1.178;2022-07-06T02:21:33;6.32;;;4.45;;
26391;SDS011;14572;43.120;1.178;2022-07-06T02:24:00;10.05;;;4.53;;
26391;SDS011;14572;43.120;1.178;2022-07-06T02:26:27;11.10;;;4.70;;
26391;SDS011;14572;43.120;1.178;2022-07-06T02:28:56;7.43;;;4.72;;
26391;SDS011;14572;43.120;1.178;2022-07-06T02:31:23;6.60;;;4.22;;
26391;SDS011;14572;43.120;1.178;2022-07-06T02:33:50;6.35;;;3.90;;
26391;SDS011;14572;43.120;1.178;2022-07-06T02:36:17;6.35;;;4.00;;
26391;SDS011;14572;43.120;1.178;2022-07-06T02:38:44;8.52;;;4.72;;
26391;SDS011;14572;43.120;1.178;2022-07-06T02:41:11;5.57;;;4.97;;
26391;SDS011;14572;43.120;1.178;2022-07-06T02:43:38;8.75;;;4.88;;
26391;SDS011;14572;43.120;1.178;2022-07-06T02:46:07;5.60;;;4.82;;
26391;SDS011;14572;43.120;1.178;2022-07-06T02:48:34;8.98;;;4.57;;
26391;SDS011;14572;43.120;1.178;2022-07-06T02:51:02;10.25;;;5.80;;
26391;SDS011;14572;43.120;1.178;2022-07-06T02:53:29;10.77;;;4.57;;
26391;SDS011;14572;43.120;1.178;2022-07-06T02:55:56;7.57;;;3.90;;
26391;SDS011;14572;43.120;1.178;2022-07-06T02:58:23;9.75;;;4.28;;
26391;SDS011;14572;43.120;1.178;2022-07-06T03:00:50;7.15;;;4.20;;
26391;SDS011;14572;43.120;1.178;2022-07-06T03:03:18;6.53;;;4.50;;
26391;SDS011;14572;43.120;1.178;2022-07-06T03:05:45;7.60;;;4.38;;
26391;SDS011;14572;43.120;1.178;2022-07-06T03:08:13;8.30;;;4.93;;
26391;SDS011;14572;43.120;1.178;2022-07-06T03:10:41;7.70;;;4.95;;
26391;SDS011;14572;43.120;1.178;2022-07-06T03:13:08;9.25;;;4.70;;
26391;SDS011;14572;43.120;1.178;2022-07-06T03:15:35;9.05;;;4.70;;
26391;SDS011;14572;43.120;1.178;2022-07-06T03:18:02;5.85;;;4.45;;
26391;SDS011;14572;43.120;1.178;2022-07-06T03:20:31;5.20;;;4.70;;
26391;SDS011;14572;43.120;1.178;2022-07-06T03:22:58;5.75;;;4.53;;
26391;SDS011;14572;43.120;1.178;2022-07-06T03:25:25;9.10;;;4.55;;
26391;SDS011;14572;43.120;1.178;2022-07-06T03:27:52;7.10;;;5.43;;
26391;SDS011;14572;43.120;1.178;2022-07-06T03:30:19;7.95;;;5.30;;
26391;SDS011;14572;43.120;1.178;2022-07-06T03:32:46;8.57;;;4.97;;
26391;SDS011;14572;43.120;1.178;2022-07-06T03:35:13;6.97;;;4.90;;
26391;SDS011;14572;43.120;1.178;2022-07-06T03:37:41;5.55;;;5.00;;
26391;SDS011;14572;43.120;1.178;2022-07-06T03:40:10;10.27;;;5.53;;
26391;SDS011;14572;43.120;1.178;2022-07-06T03:42:38;5.63;;;4.78;;
26391;SDS011;14572;43.120;1.178;2022-07-06T03:45:07;8.35;;;5.10;;
26391;SDS011;14572;43.120;1.178;2022-07-06T03:47:35;7.60;;;4.68;;
26391;SDS011;14572;43.120;1.178;2022-07-06T03:50:02;9.77;;;5.50;;
26391;SDS011;14572;43.120;1.178;2022-07-06T03:52:29;8.02;;;5.25;;
26391;SDS011;14572;43.120;1.178;2022-07-06T03:54:58;7.00;;;4.53;;
26391;SDS011;14572;43.120;1.178;2022-07-06T03:57:25;5.25;;;4.72;;
26391;SDS011;14572;43.120;1.178;2022-07-06T03:59:52;6.65;;;5.30;;
26391;SDS011;14572;43.120;1.178;2022-07-06T04:02:19;6.47;;;5.28;;
26391;SDS011;14572;43.120;1.178;2022-07-06T04:04:46;5.15;;;4.65;;
26391;SDS011;14572;43.120;1.178;2022-07-06T04:07:13;9.40;;;5.65;;
26391;SDS011;14572;43.120;1.178;2022-07-06T04:09:40;12.48;;;5.97;;
26391;SDS011;14572;43.120;1.178;2022-07-06T04:12:09;8.68;;;5.05;;
26391;SDS011;14572;43.120;1.178;2022-07-06T04:14:36;10.63;;;6.30;;
26391;SDS011;14572;43.120;1.178;2022-07-06T04:17:03;8.20;;;6.38;;
26391;SDS011;14572;43.120;1.178;2022-07-06T04:19:50;12.80;;;6.70;;
26391;SDS011;14572;43.120;1.178;2022-07-06T04:22:17;8.38;;;5.65;;
26391;SDS011;14572;43.120;1.178;2022-07-06T04:24:44;9.88;;;6.20;;
26391;SDS011;14572;43.120;1.178;2022-07-06T04:27:13;8.35;;;6.20;;
26391;SDS011;14572;43.120;1.178;2022-07-06T04:29:40;9.15;;;6.93;;
26391;SDS011;14572;43.120;1.178;2022-07-06T04:32:07;12.50;;;7.78;;
26391;SDS011;14572;43.120;1.178;2022-07-06T04:34:36;14.65;;;8.05;;
26391;SDS011;14572;43.120;1.178;2022-07-06T04:37:03;8.45;;;6.20;;
26391;SDS011;14572;43.120;1.178;2022-07-06T04:39:30;8.95;;;6.10;;
26391;SDS011;14572;43.120;1.178;2022-07-06T04:41:57;11.45;;;7.90;;
26391;SDS011;14572;43.120;1.178;2022-07-06T04:44:25;14.65;;;7.25;;
26391;SDS011;14572;43.120;1.178;2022-07-06T04:46:52;7.97;;;6.72;;
26391;SDS011;14572;43.120;1.178;2022-07-06T04:49:19;8.40;;;5.55;;
26391;SDS011;14572;43.120;1.178;2022-07-06T04:51:47;12.02;;;5.10;;
26391;SDS011;14572;43.120;1.178;2022-07-06T04:54:14;9.15;;;4.90;;
26391;SDS011;14572;43.120;1.178;2022-07-06T04:56:41;9.75;;;5.90;;
26391;SDS011;14572;43.120;1.178;2022-07-06T04:59:07;8.85;;;6.82;;
26391;SDS011;14572;43.120;1.178;2022-07-06T05:01:36;10.23;;;6.55;;
26391;SDS011;14572;43.120;1.178;2022-07-06T05:04:03;10.70;;;5.95;;
26391;SDS011;14572;43.120;1.178;2022-07-06T05:06:30;6.70;;;5.90;;
26391;SDS011;14572;43.120;1.178;2022-07-06T05:08:57;8.02;;;5.85;;
26391;SDS011;14572;43.120;1.178;2022-07-06T05:11:25;8.10;;;5.68;;
26391;SDS011;14572;43.120;1.178;2022-07-06T05:13:52;9.00;;;5.03;;
26391;SDS011;14572;43.120;1.178;2022-07-06T05:16:19;11.82;;;5.82;;
26391;SDS011;14572;43.120;1.178;2022-07-06T05:18:48;11.98;;;5.75;;
26391;SDS011;14572;43.120;1.178;2022-07-06T05:21:15;8.60;;;5.78;;
26391;SDS011;14572;43.120;1.178;2022-07-06T05:23:43;7.90;;;6.40;;
26391;SDS011;14572;43.120;1.178;2022-07-06T05:26:10;8.30;;;6.85;;
26391;SDS011;14572;43.120;1.178;2022-07-06T05:28:37;12.23;;;6.65;;
26391;SDS011;14572;43.120;1.178;2022-07-06T05:34:08;8.48;;;7.07;;
26391;SDS011;14572;43.120;1.178;2022-07-06T05:36:37;11.93;;;6.70;;
26391;SDS011;14572;43.120;1.178;2022-07-06T05:39:04;8.05;;;6.75;;
26391;SDS011;14572;43.120;1.178;2022-07-06T05:41:46;8.57;;;5.85;;
26391;SDS011;14572;43.120;1.178;2022-07-06T05:44:13;9.07;;;6.10;;
26391;SDS011;14572;43.120;1.178;2022-07-06T05:46:40;11.60;;;6.22;;
26391;SDS011;14572;43.120;1.178;2022-07-06T05:49:09;14.73;;;7.88;;
26391;SDS011;14572;43.120;1.178;2022-07-06T05:51:53;7.68;;;6.30;;
26391;SDS011;14572;43.120;1.178;2022-07-06T05:54:20;14.52;;;7.47;;
26391;SDS011;14572;43.120;1.178;2022-07-06T05:56:48;11.07;;;6.90;;
26391;SDS011;14572;43.120;1.178;2022-07-06T05:59:14;10.80;;;6.20;;
26391;SDS011;14572;43.120;1.178;2022-07-06T06:01:43;11.27;;;6.82;;
26391;SDS011;14572;43.120;1.178;2022-07-06T06:04:22;12.95;;;7.05;;
26391;SDS011;14572;43.120;1.178;2022-07-06T06:06:49;10.82;;;7.35;;
26391;SDS011;14572;43.120;1.178;2022-07-06T06:09:16;11.00;;;7.00;;
26391;SDS011;14572;43.120;1.178;2022-07-06T06:11:43;9.82;;;7.30;;
26391;SDS011;14572;43.120;1.178;2022-07-06T06:14:10;8.77;;;7.10;;
26391;SDS011;14572;43.120;1.178;2022-07-06T06:16:37;13.07;;;8.57;;
26391;SDS011;14572;43.120;1.178;2022-07-06T06:19:04;13.23;;;8.57;;
26391;SDS011;14572;43.120;1.178;2022-07-06T06:21:33;13.80;;;8.30;;
26391;SDS011;14572;43.120;1.178;2022-07-06T06:24:00;11.77;;;8.27;;
26391;SDS011;14572;43.120;1.178;2022-07-06T06:26:27;12.15;;;8.18;;
26391;SDS011;14572;43.120;1.178;2022-07-06T06:28:54;15.48;;;8.13;;
26391;SDS011;14572;43.120;1.178;2022-07-06T06:31:22;13.05;;;8.77;;
26391;SDS011;14572;43.120;1.178;2022-07-06T06:33:49;13.25;;;8.18;;
26391;SDS011;14572;43.120;1.178;2022-07-06T06:36:18;8.73;;;7.82;;
26391;SDS011;14572;43.120;1.178;2022-07-06T06:38:46;12.85;;;8.75;;
26391;SDS011;14572;43.120;1.178;2022-07-06T06:41:14;14.68;;;8.43;;
26391;SDS011;14572;43.120;1.178;2022-07-06T06:43:41;13.07;;;7.25;;
26391;SDS011;14572;43.120;1.178;2022-07-06T06:46:08;12.07;;;6.75;;
26391;SDS011;14572;43.120;1.178;2022-07-06T06:48:36;10.13;;;7.00;;
26391;SDS011;14572;43.120;1.178;2022-07-06T06:51:03;8.20;;;6.72;;
26391;SDS011;14572;43.120;1.178;2022-07-06T06:53:30;7.93;;;6.93;;
26391;SDS011;14572;43.120;1.178;2022-07-06T06:55:59;13.38;;;6.80;;
26391;SDS011;14572;43.120;1.178;2022-07-06T06:58:26;11.27;;;7.90;;
26391;SDS011;14572;43.120;1.178;2022-07-06T07:00:53;10.13;;;6.93;;
26391;SDS011;14572;43.120;1.178;2022-07-06T07:03:23;8.43;;;7.15;;
26391;SDS011;14572;43.120;1.178;2022-07-06T07:05:49;9.13;;;6.72;;
26391;SDS011;14572;43.120;1.178;2022-07-06T07:08:16;9.27;;;6.47;;
26391;SDS011;14572;43.120;1.178;2022-07-06T07:10:43;13.20;;;7.03;;
26391;SDS011;14572;43.120;1.178;2022-07-06T07:13:12;13.25;;;7.10;;
26391;SDS011;14572;43.120;1.178;2022-07-06T07:15:39;15.43;;;6.85;;
26391;SDS011;14572;43.120;1.178;2022-07-06T07:18:06;10.07;;;6.03;;
26391;SDS011;14572;43.120;1.178;2022-07-06T07:20:33;14.45;;;10.52;;
26391;SDS011;14572;43.120;1.178;2022-07-06T07:23:00;10.45;;;7.57;;
26391;SDS011;14572;43.120;1.178;2022-07-06T07:25:27;8.15;;;6.68;;
26391;SDS011;14572;43.120;1.178;2022-07-06T07:27:54;10.23;;;6.43;;
26391;SDS011;14572;43.120;1.178;2022-07-06T07:30:23;9.23;;;6.20;;
26391;SDS011;14572;43.120;1.178;2022-07-06T07:32:50;8.90;;;5.90;;
26391;SDS011;14572;43.120;1.178;2022-07-06T07:35:18;9.13;;;6.18;;
26391;SDS011;14572;43.120;1.178;2022-07-06T07:37:45;11.25;;;6.70;;
26391;SDS011;14572;43.120;1.178;2022-07-06T07:40:12;13.07;;;7.50;;
26391;SDS011;14572;43.120;1.178;2022-07-06T07:42:39;12.35;;;5.93;;
26391;SDS011;14572;43.120;1.178;2022-07-06T07:45:06;9.15;;;6.55;;
26391;SDS011;14572;43.120;1.178;2022-07-06T07:47:35;11.30;;;6.45;;
26391;SDS011;14572;43.120;1.178;2022-07-06T07:50:02;8.80;;;6.28;;
26391;SDS011;14572;43.120;1.178;2022-07-06T07:52:29;12.02;;;6.55;;
26391;SDS011;14572;43.120;1.178;2022-07-06T07:54:57;11.95;;;5.80;;
26391;SDS011;14572;43.120;1.178;2022-07-06T07:57:24;10.55;;;5.88;;
26391;SDS011;14572;43.120;1.178;2022-07-06T07:59:51;13.13;;;6.13;;
26391;SDS011;14572;43.120;1.178;2022-07-06T08:02:18;9.88;;;5.80;;
26391;SDS011;14572;43.120;1.178;2022-07-06T08:04:47;8.25;;;5.75;;
26391;SDS011;14572;43.120;1.178;2022-07-06T08:07:14;5.97;;;4.93;;
26391;SDS011;14572;43.120;1.178;2022-07-06T08:09:41;7.70;;;4.70;;
26391;SDS011;14572;43.120;1.178;2022-07-06T08:12:08;12.38;;;4.65;;
26391;SDS011;14572;43.120;1.178;2022-07-06T08:14:36;9.05;;;4.55;;
26391;SDS011;14572;43.120;1.178;2022-07-06T08:17:03;10.10;;;4.90;;
26391;SDS011;14572;43.120;1.178;2022-07-06T08:19:30;7.43;;;4.35;;
26391;SDS011;14572;43.120;1.178;2022-07-06T08:21:59;7.80;;;3.92;;
26391;SDS011;14572;43.120;1.178;2022-07-06T08:24:26;9.15;;;4.15;;
26391;SDS011;14572;43.120;1.178;2022-07-06T08:26:53;8.50;;;3.72;;
26391;SDS011;14572;43.120;1.178;2022-07-06T08:29:23;6.60;;;3.75;;
26391;SDS011;14572;43.120;1.178;2022-07-06T08:31:50;8.13;;;3.70;;
26391;SDS011;14572;43.120;1.178;2022-07-06T08:34:17;9.05;;;3.45;;
26391;SDS011;14572;43.120;1.178;2022-07-06T08:36:44;7.07;;;3.22;;
26391;SDS011;14572;43.120;1.178;2022-07-06T08:39:12;5.03;;;3.17;;
26391;SDS011;14572;43.120;1.178;2022-07-06T08:41:40;5.78;;;2.97;;
26391;SDS011;14572;43.120;1.178;2022-07-06T08:44:08;5.20;;;2.58;;
26391;SDS011;14572;43.120;1.178;2022-07-06T08:46:37;3.35;;;2.33;;
26391;SDS011;14572;43.120;1.178;2022-07-06T08:49:05;4.47;;;2.50;;
26391;SDS011;14572;43.120;1.178;2022-07-06T08:51:33;5.40;;;2.55;;
26391;SDS011;14572;43.120;1.178;2022-07-06T08:54:01;5.97;;;2.63;;
26391;SDS011;14572;43.120;1.178;2022-07-06T08:56:30;9.98;;;2.70;;
26391;SDS011;14572;43.120;1.178;2022-07-06T08:58:58;7.70;;;2.40;;
26391;SDS011;14572;43.120;1.178;2022-07-06T09:01:25;7.90;;;2.70;;
26391;SDS011;14572;43.120;1.178;2022-07-06T09:03:53;4.13;;;2.40;;
26391;SDS011;14572;43.120;1.178;2022-07-06T09:06:23;4.60;;;2.47;;
26391;SDS011;14572;43.120;1.178;2022-07-06T09:08:52;5.22;;;2.80;;
26391;SDS011;14572;43.120;1.178;2022-07-06T09:11:20;9.07;;;2.60;;
26391;SDS011;14572;43.120;1.178;2022-07-06T09:13:49;17.00;;;2.97;;
26391;SDS011;14572;43.120;1.178;2022-07-06T09:16:17;5.07;;;2.20;;
26391;SDS011;14572;43.120;1.178;2022-07-06T09:18:44;5.35;;;2.13;;
26391;SDS011;14572;43.120;1.178;2022-07-06T09:21:11;3.80;;;2.22;;
26391;SDS011;14572;43.120;1.178;2022-07-06T09:23:38;4.88;;;2.45;;
26391;SDS011;14572;43.120;1.178;2022-07-06T09:26:05;10.10;;;2.72;;
26391;SDS011;14572;43.120;1.178;2022-07-06T09:28:42;5.93;;;2.17;;
26391;SDS011;14572;43.120;1.178;2022-07-06T09:31:10;6.03;;;2.42;;
26391;SDS011;14572;43.120;1.178;2022-07-06T09:33:38;6.18;;;2.20;;
26391;SDS011;14572;43.120;1.178;2022-07-06T09:36:05;5.63;;;2.25;;
26391;SDS011;14572;43.120;1.178;2022-07-06T09:38:32;5.18;;;2.30;;
26391;SDS011;14572;43.120;1.178;2022-07-06T09:40:59;5.20;;;2.38;;
26391;SDS011;14572;43.120;1.178;2022-07-06T09:43:28;8.48;;;2.47;;
26391;SDS011;14572;43.120;1.178;2022-07-06T09:45:56;4.28;;;2.22;;
26391;SDS011;14572;43.120;1.178;2022-07-06T09:48:26;4.30;;;2.42;;
26391;SDS011;14572;43.120;1.178;2022-07-06T09:50:54;7.07;;;2.20;;
26391;SDS011;14572;43.120;1.178;2022-07-06T09:53:22;5.78;;;2.08;;
26391;SDS011;14572;43.120;1.178;2022-07-06T09:55:51;5.35;;;2.00;;
26391;SDS011;14572;43.120;1.178;2022-07-06T09:58:19;5.10;;;1.70;;
26391;SDS011;14572;43.120;1.178;2022-07-06T10:00:46;5.03;;;1.63;;
26391;SDS011;14572;43.120;1.178;2022-07-06T10:03:14;4.43;;;2.00;;
26391;SDS011;14572;43.120;1.178;2022-07-06T10:05:43;2.58;;;1.33;;
26391;SDS011;14572;43.120;1.178;2022-07-06T10:08:12;3.13;;;1.98;;
26391;SDS011;14572;43.120;1.178;2022-07-06T10:10:40;3.45;;;1.73;;
26391;SDS011;14572;43.120;1.178;2022-07-06T10:13:08;3.85;;;1.45;;
26391;SDS011;14572;43.120;1.178;2022-07-06T10:15:39;5.15;;;1.92;;
26391;SDS011;14572;43.120;1.178;2022-07-06T10:18:07;4.85;;;1.83;;
26391;SDS011;14572;43.120;1.178;2022-07-06T10:20:35;2.50;;;1.70;;
26391;SDS011;14572;43.120;1.178;2022-07-06T10:23:07;4.20;;;1.65;;
26391;SDS011;14572;43.120;1.178;2022-07-06T10:25:35;7.30;;;1.92;;
26391;SDS011;14572;43.120;1.178;2022-07-06T10:28:02;3.38;;;1.63;;
26391;SDS011;14572;43.120;1.178;2022-07-06T10:30:37;2.40;;;1.50;;
26391;SDS011;14572;43.120;1.178;2022-07-06T10:33:05;4.25;;;2.10;;
26391;SDS011;14572;43.120;1.178;2022-07-06T10:35:32;4.03;;;1.90;;
26391;SDS011;14572;43.120;1.178;2022-07-06T10:38:04;2.90;;;1.40;;
26391;SDS011;14572;43.120;1.178;2022-07-06T10:40:34;8.35;;;2.08;;
26391;SDS011;14572;43.120;1.178;2022-07-06T10:43:18;3.60;;;1.75;;
26391;SDS011;14572;43.120;1.178;2022-07-06T10:45:52;3.55;;;1.92;;
26391;SDS011;14572;43.120;1.178;2022-07-06T10:48:19;5.47;;;1.70;;
26391;SDS011;14572;43.120;1.178;2022-07-06T10:50:48;3.78;;;2.10;;
26391;SDS011;14572;43.120;1.178;2022-07-06T10:53:21;2.92;;;1.80;;
26391;SDS011;14572;43.120;1.178;2022-07-06T10:55:50;5.60;;;1.70;;
26391;SDS011;14572;43.120;1.178;2022-07-06T10:58:36;4.05;;;1.75;;
26391;SDS011;14572;43.120;1.178;2022-07-06T11:01:05;3.75;;;2.25;;
26391;SDS011;14572;43.120;1.178;2022-07-06T11:03:33;3.80;;;1.77;;
26391;SDS011;14572;43.120;1.178;2022-07-06T11:06:03;3.45;;;1.80;;
26391;SDS011;14572;43.120;1.178;2022-07-06T11:08:48;3.13;;;1.70;;
26391;SDS011;14572;43.120;1.178;2022-07-06T11:11:17;3.10;;;1.50;;
26391;SDS011;14572;43.120;1.178;2022-07-06T11:13:48;4.45;;;1.75;;
26391;SDS011;14572;43.120;1.178;2022-07-06T11:16:16;5.20;;;1.90;;
26391;SDS011;14572;43.120;1.178;2022-07-06T11:18:48;4.32;;;1.60;;
26391;SDS011;14572;43.120;1.178;2022-07-06T11:21:16;3.97;;;1.60;;
26391;SDS011;14572;43.120;1.178;2022-07-06T11:23:49;3.88;;;1.80;;
26391;SDS011;14572;43.120;1.178;2022-07-06T11:26:16;4.25;;;2.15;;
26391;SDS011;14572;43.120;1.178;2022-07-06T11:28:44;4.03;;;2.03;;
26391;SDS011;14572;43.120;1.178;2022-07-06T11:31:13;3.30;;;2.25;;
26391;SDS011;14572;43.120;1.178;2022-07-06T11:33:41;3.58;;;2.08;;
26391;SDS011;14572;43.120;1.178;2022-07-06T11:36:12;5.63;;;1.90;;
26391;SDS011;14572;43.120;1.178;2022-07-06T11:38:40;3.92;;;1.77;;
26391;SDS011;14572;43.120;1.178;2022-07-06T11:41:08;2.30;;;2.05;;
26391;SDS011;14572;43.120;1.178;2022-07-06T11:43:36;4.97;;;1.85;;
26391;SDS011;14572;43.120;1.178;2022-07-06T11:46:17;5.43;;;1.80;;
26391;SDS011;14572;43.120;1.178;2022-07-06T11:48:45;2.85;;;2.00;;
26391;SDS011;14572;43.120;1.178;2022-07-06T11:51:13;6.10;;;2.00;;
26391;SDS011;14572;43.120;1.178;2022-07-06T11:53:42;5.65;;;2.22;;
26391;SDS011;14572;43.120;1.178;2022-07-06T11:56:11;4.40;;;1.90;;
26391;SDS011;14572;43.120;1.178;2022-07-06T11:58:39;3.15;;;1.80;;
26391;SDS011;14572;43.120;1.178;2022-07-06T12:01:09;4.13;;;2.15;;
26391;SDS011;14572;43.120;1.178;2022-07-06T12:03:37;3.63;;;1.98;;
26391;SDS011;14572;43.120;1.178;2022-07-06T12:06:05;4.93;;;2.20;;
26391;SDS011;14572;43.120;1.178;2022-07-06T12:08:40;5.63;;;2.17;;
26391;SDS011;14572;43.120;1.178;2022-07-06T12:11:08;2.75;;;1.90;;
26391;SDS011;14572;43.120;1.178;2022-07-06T12:13:38;6.95;;;2.13;;
26391;SDS011;14572;43.120;1.178;2022-07-06T12:16:09;2.78;;;1.83;;
26391;SDS011;14572;43.120;1.178;2022-07-06T12:18:37;4.38;;;2.28;;
26391;SDS011;14572;43.120;1.178;2022-07-06T12:21:06;19.60;;;3.03;;
26391;SDS011;14572;43.120;1.178;2022-07-06T12:23:40;3.70;;;2.15;;
26391;SDS011;14572;43.120;1.178;2022-07-06T12:26:08;8.77;;;2.17;;
26391;SDS011;14572;43.120;1.178;2022-07-06T12:28:36;8.00;;;1.90;;
26391;SDS011;14572;43.120;1.178;2022-07-06T12:31:04;6.20;;;1.88;;
26391;SDS011;14572;43.120;1.178;2022-07-06T12:33:32;5.00;;;2.35;;
26391;SDS011;14572;43.120;1.178;2022-07-06T12:36:09;6.70;;;1.90;;
26391;SDS011;14572;43.120;1.178;2022-07-06T12:38:43;5.18;;;1.65;;
26391;SDS011;14572;43.120;1.178;2022-07-06T12:41:23;5.57;;;2.10;;
26391;SDS011;14572;43.120;1.178;2022-07-06T12:44:01;5.07;;;2.60;;
26391;SDS011;14572;43.120;1.178;2022-07-06T12:46:30;3.25;;;2.10;;
26391;SDS011;14572;43.120;1.178;2022-07-06T12:48:58;3.95;;;2.20;;
26391;SDS011;14572;43.120;1.178;2022-07-06T12:51:26;4.53;;;2.50;;
26391;SDS011;14572;43.120;1.178;2022-07-06T12:59:28;4.18;;;2.10;;
26391;SDS011;14572;43.120;1.178;2022-07-06T13:01:56;6.10;;;2.47;;
26391;SDS011;14572;43.120;1.178;2022-07-06T13:04:23;5.05;;;2.10;;
26391;SDS011;14572;43.120;1.178;2022-07-06T13:06:51;3.72;;;2.05;;
26391;SDS011;14572;43.120;1.178;2022-07-06T13:09:18;4.45;;;2.03;;
26391;SDS011;14572;43.120;1.178;2022-07-06T13:11:46;5.68;;;2.55;;
26391;SDS011;14572;43.120;1.178;2022-07-06T13:14:13;3.28;;;1.95;;
26391;SDS011;14572;43.120;1.178;2022-07-06T13:16:41;4.22;;;1.98;;
26391;SDS011;14572;43.120;1.178;2022-07-06T13:19:08;4.35;;;2.10;;
26391;SDS011;14572;43.120;1.178;2022-07-06T13:21:36;8.23;;;2.25;;
26391;SDS011;14572;43.120;1.178;2022-07-06T13:24:04;6.03;;;2.35;;
26391;SDS011;14572;43.120;1.178;2022-07-06T13:26:32;5.97;;;2.13;;
26391;SDS011;14572;43.120;1.178;2022-07-06T13:29:00;16.48;;;2.88;;
26391;SDS011;14572;43.120;1.178;2022-07-06T13:31:27;7.53;;;2.00;;
26391;SDS011;14572;43.120;1.178;2022-07-06T13:33:56;3.70;;;2.13;;
26391;SDS011;14572;43.120;1.178;2022-07-06T13:36:23;3.08;;;1.70;;
26391;SDS011;14572;43.120;1.178;2022-07-06T13:38:50;8.20;;;2.00;;
26391;SDS011;14572;43.120;1.178;2022-07-06T13:41:17;4.68;;;2.13;;
26391;SDS011;14572;43.120;1.178;2022-07-06T13:43:44;5.05;;;1.80;;
26391;SDS011;14572;43.120;1.178;2022-07-06T13:46:11;5.10;;;1.70;;
26391;SDS011;14572;43.120;1.178;2022-07-06T13:48:38;3.92;;;2.03;;
26391;SDS011;14572;43.120;1.178;2022-07-06T13:51:07;3.65;;;1.60;;
26391;SDS011;14572;43.120;1.178;2022-07-06T13:53:34;7.05;;;1.95;;
26391;SDS011;14572;43.120;1.178;2022-07-06T13:56:02;2.45;;;1.90;;
26391;SDS011;14572;43.120;1.178;2022-07-06T13:58:30;3.75;;;1.80;;
26391;SDS011;14572;43.120;1.178;2022-07-06T14:00:56;7.90;;;2.00;;
26391;SDS011;14572;43.120;1.178;2022-07-06T14:03:24;4.63;;;1.88;;
26391;SDS011;14572;43.120;1.178;2022-07-06T14:05:54;2.72;;;1.70;;
26391;SDS011;14572;43.120;1.178;2022-07-06T14:08:23;5.10;;;1.70;;
26391;SDS011;14572;43.120;1.178;2022-07-06T14:10:50;5.95;;;1.80;;
26391;SDS011;14572;43.120;1.178;2022-07-06T14:13:18;7.95;;;1.92;;
26391;SDS011;14572;43.120;1.178;2022-07-06T14:15:45;5.97;;;2.00;;
26391;SDS011;14572;43.120;1.178;2022-07-06T14:18:12;5.47;;;1.75;;
26391;SDS011;14572;43.120;1.178;2022-07-06T14:20:39;3.60;;;1.80;;
26391;SDS011;14572;43.120;1.178;2022-07-06T14:23:06;2.20;;;1.98;;
26391;SDS011;14572;43.120;1.178;2022-07-06T14:25:36;5.72;;;1.60;;
26391;SDS011;14572;43.120;1.178;2022-07-06T14:28:03;5.22;;;1.88;;
26391;SDS011;14572;43.120;1.178;2022-07-06T14:30:31;5.75;;;2.30;;
26391;SDS011;14572;43.120;1.178;2022-07-06T14:32:58;4.00;;;2.40;;
26391;SDS011;14572;43.120;1.178;2022-07-06T14:35:25;6.18;;;2.20;;
26391;SDS011;14572;43.120;1.178;2022-07-06T14:37:52;4.70;;;2.42;;
26391;SDS011;14572;43.120;1.178;2022-07-06T14:40:19;5.70;;;2.28;;
26391;SDS011;14572;43.120;1.178;2022-07-06T14:42:47;7.20;;;2.65;;
26391;SDS011;14572;43.120;1.178;2022-07-06T14:45:14;8.48;;;2.50;;
26391;SDS011;14572;43.120;1.178;2022-07-06T14:47:41;3.60;;;2.30;;
26391;SDS011;14572;43.120;1.178;2022-07-06T14:50:08;5.05;;;2.30;;
26391;SDS011;14572;43.120;1.178;2022-07-06T14:52:35;2.60;;;2.22;;
26391;SDS011;14572;43.120;1.178;2022-07-06T14:55:03;5.63;;;2.40;;
26391;SDS011;14572;43.120;1.178;2022-07-06T14:57:31;4.53;;;2.65;;
26391;SDS011;14572;43.120;1.178;2022-07-06T14:59:59;4.70;;;1.98;;